sensor_id;sensor_type;location;lat;lon;timestamp;P1;durP1;ratioP1;P2;durP2;ratioP2
63930;SDS011;50111;48.114;-2.066;2022-08-16T00:00:49;18.17;;;14.55;;
63930;SDS011;50111;48.114;-2.066;2022-08-16T00:03:15;16.80;;;15.10;;
63930;SDS011;50111;48.114;-2.066;2022-08-16T00:05:42;20.13;;;16.60;;
63930;SDS011;50111;48.114;-2.066;2022-08-16T00:08:08;20.02;;;16.52;;
63930;SDS011;50111;48.114;-2.066;2022-08-16T00:10:35;21.92;;;17.65;;
63930;SDS011;50111;48.114;-2.066;2022-08-16T00:13:03;20.83;;;15.57;;
63930;SDS011;50111;48.114;-2.066;2022-08-16T00:15:31;20.05;;;17.23;;
63930;SDS011;50111;48.114;-2.066;2022-08-16T00:17:58;20.35;;;17.10;;
63930;SDS011;50111;48.114;-2.066;2022-08-16T00:20:24;22.25;;;18.67;;
63930;SDS011;50111;48.114;-2.066;2022-08-16T00:22:50;20.13;;;17.85;;
63930;SDS011;50111;48.114;-2.066;2022-08-16T00:25:18;21.08;;;17.70;;
63930;SDS011;50111;48.114;-2.066;2022-08-16T00:27:44;21.55;;;18.02;;
63930;SDS011;50111;48.114;-2.066;2022-08-16T00:30:11;20.45;;;17.15;;
63930;SDS011;50111;48.114;-2.066;2022-08-16T00:32:39;22.77;;;19.73;;
63930;SDS011;50111;48.114;-2.066;2022-08-16T00:35:06;21.88;;;19.02;;
63930;SDS011;50111;48.114;-2.066;2022-08-16T00:37:32;25.70;;;19.27;;
63930;SDS011;50111;48.114;-2.066;2022-08-16T00:39:58;21.20;;;19.05;;
63930;SDS011;50111;48.114;-2.066;2022-08-16T00:42:28;23.80;;;19.80;;
63930;SDS011;50111;48.114;-2.066;2022-08-16T00:44:55;24.65;;;20.08;;
63930;SDS011;50111;48.114;-2.066;2022-08-16T00:47:22;23.27;;;19.70;;
63930;SDS011;50111;48.114;-2.066;2022-08-16T00:49:49;20.27;;;17.95;;
63930;SDS011;50111;48.114;-2.066;2022-08-16T00:52:15;23.00;;;18.92;;
63930;SDS011;50111;48.114;-2.066;2022-08-16T00:54:41;25.65;;;19.48;;
63930;SDS011;50111;48.114;-2.066;2022-08-16T00:57:07;23.98;;;19.00;;
63930;SDS011;50111;48.114;-2.066;2022-08-16T00:59:34;23.42;;;19.67;;
63930;SDS011;50111;48.114;-2.066;2022-08-16T01:02:02;25.73;;;18.85;;
63930;SDS011;50111;48.114;-2.066;2022-08-16T01:04:29;26.90;;;20.80;;
63930;SDS011;50111;48.114;-2.066;2022-08-16T01:06:55;24.75;;;20.25;;
63930;SDS011;50111;48.114;-2.066;2022-08-16T01:09:21;22.83;;;19.65;;
63930;SDS011;50111;48.114;-2.066;2022-08-16T01:11:47;28.10;;;20.40;;
63930;SDS011;50111;48.114;-2.066;2022-08-16T01:16:40;24.98;;;19.13;;
63930;SDS011;50111;48.114;-2.066;2022-08-16T01:19:13;26.27;;;18.63;;
63930;SDS011;50111;48.114;-2.066;2022-08-16T01:26:48;28.70;;;21.25;;
63930;SDS011;50111;48.114;-2.066;2022-08-16T01:29:18;25.83;;;20.35;;
63930;SDS011;50111;48.114;-2.066;2022-08-16T01:31:46;26.38;;;20.88;;
63930;SDS011;50111;48.114;-2.066;2022-08-16T01:34:12;26.40;;;19.73;;
63930;SDS011;50111;48.114;-2.066;2022-08-16T01:36:39;28.13;;;21.15;;
63930;SDS011;50111;48.114;-2.066;2022-08-16T01:39:13;29.13;;;21.23;;
63930;SDS011;50111;48.114;-2.066;2022-08-16T01:41:39;26.38;;;20.48;;
63930;SDS011;50111;48.114;-2.066;2022-08-16T01:44:06;28.23;;;20.75;;
63930;SDS011;50111;48.114;-2.066;2022-08-16T01:46:37;27.08;;;20.48;;
63930;SDS011;50111;48.114;-2.066;2022-08-16T01:49:11;23.35;;;19.08;;
63930;SDS011;50111;48.114;-2.066;2022-08-16T01:51:38;25.70;;;20.02;;
63930;SDS011;50111;48.114;-2.066;2022-08-16T01:54:05;26.67;;;21.30;;
63930;SDS011;50111;48.114;-2.066;2022-08-16T01:56:31;29.08;;;21.50;;
63930;SDS011;50111;48.114;-2.066;2022-08-16T01:59:02;25.02;;;20.23;;
63930;SDS011;50111;48.114;-2.066;2022-08-16T02:01:29;27.00;;;21.73;;
63930;SDS011;50111;48.114;-2.066;2022-08-16T02:03:56;32.53;;;22.67;;
63930;SDS011;50111;48.114;-2.066;2022-08-16T02:06:22;23.90;;;19.65;;
63930;SDS011;50111;48.114;-2.066;2022-08-16T02:08:50;25.50;;;19.73;;
63930;SDS011;50111;48.114;-2.066;2022-08-16T02:11:17;23.88;;;19.15;;
63930;SDS011;50111;48.114;-2.066;2022-08-16T02:13:43;26.35;;;21.35;;
63930;SDS011;50111;48.114;-2.066;2022-08-16T02:16:10;28.35;;;21.45;;
63930;SDS011;50111;48.114;-2.066;2022-08-16T02:18:37;29.80;;;20.77;;
63930;SDS011;50111;48.114;-2.066;2022-08-16T02:21:03;26.77;;;20.83;;
63930;SDS011;50111;48.114;-2.066;2022-08-16T02:23:29;27.50;;;21.80;;
63930;SDS011;50111;48.114;-2.066;2022-08-16T02:25:56;26.90;;;20.90;;
63930;SDS011;50111;48.114;-2.066;2022-08-16T02:28:22;28.63;;;21.38;;
63930;SDS011;50111;48.114;-2.066;2022-08-16T02:30:49;25.60;;;21.02;;
63930;SDS011;50111;48.114;-2.066;2022-08-16T02:33:15;27.75;;;20.58;;
63930;SDS011;50111;48.114;-2.066;2022-08-16T02:35:41;26.88;;;21.63;;
63930;SDS011;50111;48.114;-2.066;2022-08-16T02:38:07;26.77;;;20.83;;
63930;SDS011;50111;48.114;-2.066;2022-08-16T02:40:34;32.65;;;21.95;;
63930;SDS011;50111;48.114;-2.066;2022-08-16T02:43:00;25.27;;;20.33;;
63930;SDS011;50111;48.114;-2.066;2022-08-16T02:45:26;22.98;;;19.67;;
63930;SDS011;50111;48.114;-2.066;2022-08-16T02:47:53;28.42;;;19.20;;
63930;SDS011;50111;48.114;-2.066;2022-08-16T02:50:19;24.48;;;21.13;;
63930;SDS011;50111;48.114;-2.066;2022-08-16T02:52:45;26.80;;;20.38;;
63930;SDS011;50111;48.114;-2.066;2022-08-16T02:55:11;28.65;;;19.58;;
63930;SDS011;50111;48.114;-2.066;2022-08-16T02:57:38;28.88;;;19.67;;
63930;SDS011;50111;48.114;-2.066;2022-08-16T03:00:05;25.80;;;20.35;;
63930;SDS011;50111;48.114;-2.066;2022-08-16T03:02:34;29.77;;;20.85;;
63930;SDS011;50111;48.114;-2.066;2022-08-16T03:05:00;26.05;;;20.55;;
63930;SDS011;50111;48.114;-2.066;2022-08-16T03:07:26;26.27;;;19.45;;
63930;SDS011;50111;48.114;-2.066;2022-08-16T03:09:52;33.92;;;21.27;;
63930;SDS011;50111;48.114;-2.066;2022-08-16T03:12:18;25.83;;;19.50;;
63930;SDS011;50111;48.114;-2.066;2022-08-16T03:14:44;24.52;;;19.50;;
63930;SDS011;50111;48.114;-2.066;2022-08-16T03:17:10;24.98;;;19.60;;
63930;SDS011;50111;48.114;-2.066;2022-08-16T03:19:36;24.25;;;20.75;;
63930;SDS011;50111;48.114;-2.066;2022-08-16T03:22:02;27.27;;;20.73;;
63930;SDS011;50111;48.114;-2.066;2022-08-16T03:24:28;25.42;;;20.40;;
63930;SDS011;50111;48.114;-2.066;2022-08-16T03:26:56;28.83;;;20.30;;
63930;SDS011;50111;48.114;-2.066;2022-08-16T03:29:22;27.58;;;19.92;;
63930;SDS011;50111;48.114;-2.066;2022-08-16T03:31:51;27.90;;;20.85;;
63930;SDS011;50111;48.114;-2.066;2022-08-16T03:34:17;33.17;;;21.27;;
63930;SDS011;50111;48.114;-2.066;2022-08-16T03:36:44;27.40;;;20.90;;
63930;SDS011;50111;48.114;-2.066;2022-08-16T03:39:10;25.50;;;19.25;;
63930;SDS011;50111;48.114;-2.066;2022-08-16T03:41:37;24.05;;;19.60;;
63930;SDS011;50111;48.114;-2.066;2022-08-16T03:44:05;29.10;;;19.70;;
63930;SDS011;50111;48.114;-2.066;2022-08-16T03:46:32;23.13;;;19.10;;
63930;SDS011;50111;48.114;-2.066;2022-08-16T03:48:58;22.27;;;19.05;;
63930;SDS011;50111;48.114;-2.066;2022-08-16T03:51:24;23.65;;;18.08;;
63930;SDS011;50111;48.114;-2.066;2022-08-16T03:53:50;30.33;;;19.33;;
63930;SDS011;50111;48.114;-2.066;2022-08-16T03:56:16;27.65;;;19.25;;
63930;SDS011;50111;48.114;-2.066;2022-08-16T03:58:42;24.90;;;18.35;;
63930;SDS011;50111;48.114;-2.066;2022-08-16T04:01:08;22.83;;;17.75;;
63930;SDS011;50111;48.114;-2.066;2022-08-16T04:03:34;22.17;;;16.48;;
63930;SDS011;50111;48.114;-2.066;2022-08-16T04:06:01;25.40;;;19.27;;
63930;SDS011;50111;48.114;-2.066;2022-08-16T04:08:27;29.27;;;18.75;;
63930;SDS011;50111;48.114;-2.066;2022-08-16T04:10:55;22.60;;;18.30;;
63930;SDS011;50111;48.114;-2.066;2022-08-16T04:13:21;20.85;;;17.60;;
63930;SDS011;50111;48.114;-2.066;2022-08-16T04:15:48;24.05;;;18.38;;
63930;SDS011;50111;48.114;-2.066;2022-08-16T04:18:14;22.48;;;17.65;;
63930;SDS011;50111;48.114;-2.066;2022-08-16T04:20:41;22.77;;;17.20;;
63930;SDS011;50111;48.114;-2.066;2022-08-16T04:23:07;22.83;;;18.48;;
63930;SDS011;50111;48.114;-2.066;2022-08-16T04:25:34;24.80;;;18.20;;
63930;SDS011;50111;48.114;-2.066;2022-08-16T04:28:00;27.15;;;19.48;;
63930;SDS011;50111;48.114;-2.066;2022-08-16T04:30:26;26.00;;;19.75;;
63930;SDS011;50111;48.114;-2.066;2022-08-16T04:32:53;26.77;;;18.67;;
63930;SDS011;50111;48.114;-2.066;2022-08-16T04:35:21;26.52;;;20.00;;
63930;SDS011;50111;48.114;-2.066;2022-08-16T04:37:47;25.73;;;18.67;;
63930;SDS011;50111;48.114;-2.066;2022-08-16T04:40:14;23.52;;;17.65;;
63930;SDS011;50111;48.114;-2.066;2022-08-16T04:42:41;25.15;;;19.10;;
63930;SDS011;50111;48.114;-2.066;2022-08-16T04:45:10;29.92;;;19.40;;
63930;SDS011;50111;48.114;-2.066;2022-08-16T04:47:37;25.50;;;18.77;;
63930;SDS011;50111;48.114;-2.066;2022-08-16T04:50:23;27.90;;;19.23;;
63930;SDS011;50111;48.114;-2.066;2022-08-16T04:52:50;27.35;;;18.48;;
63930;SDS011;50111;48.114;-2.066;2022-08-16T04:55:21;24.33;;;18.65;;
63930;SDS011;50111;48.114;-2.066;2022-08-16T05:00:15;27.33;;;19.30;;
63930;SDS011;50111;48.114;-2.066;2022-08-16T05:02:41;27.15;;;20.02;;
63930;SDS011;50111;48.114;-2.066;2022-08-16T05:05:08;32.47;;;20.83;;
63930;SDS011;50111;48.114;-2.066;2022-08-16T05:07:34;25.33;;;19.00;;
63930;SDS011;50111;48.114;-2.066;2022-08-16T05:10:00;27.92;;;19.75;;
63930;SDS011;50111;48.114;-2.066;2022-08-16T05:12:26;29.67;;;20.02;;
63930;SDS011;50111;48.114;-2.066;2022-08-16T05:14:52;30.52;;;20.02;;
63930;SDS011;50111;48.114;-2.066;2022-08-16T05:17:18;34.90;;;20.52;;
63930;SDS011;50111;48.114;-2.066;2022-08-16T05:19:44;27.08;;;18.85;;
63930;SDS011;50111;48.114;-2.066;2022-08-16T05:22:10;25.98;;;19.30;;
63930;SDS011;50111;48.114;-2.066;2022-08-16T05:24:37;26.45;;;18.00;;
63930;SDS011;50111;48.114;-2.066;2022-08-16T05:27:03;30.52;;;19.58;;
63930;SDS011;50111;48.114;-2.066;2022-08-16T05:29:29;27.55;;;18.52;;
63930;SDS011;50111;48.114;-2.066;2022-08-16T05:31:55;29.25;;;19.77;;
63930;SDS011;50111;48.114;-2.066;2022-08-16T05:34:21;28.17;;;18.35;;
63930;SDS011;50111;48.114;-2.066;2022-08-16T05:36:47;26.10;;;18.60;;
63930;SDS011;50111;48.114;-2.066;2022-08-16T05:39:14;26.50;;;18.98;;
63930;SDS011;50111;48.114;-2.066;2022-08-16T05:41:40;28.38;;;20.42;;
63930;SDS011;50111;48.114;-2.066;2022-08-16T05:44:06;32.58;;;20.75;;
63930;SDS011;50111;48.114;-2.066;2022-08-16T05:46:32;31.05;;;19.90;;
63930;SDS011;50111;48.114;-2.066;2022-08-16T05:48:59;30.48;;;19.75;;
63930;SDS011;50111;48.114;-2.066;2022-08-16T05:51:25;29.30;;;19.15;;
63930;SDS011;50111;48.114;-2.066;2022-08-16T05:53:51;31.77;;;20.98;;
63930;SDS011;50111;48.114;-2.066;2022-08-16T05:56:17;28.55;;;19.25;;
63930;SDS011;50111;48.114;-2.066;2022-08-16T05:58:43;25.17;;;18.02;;
63930;SDS011;50111;48.114;-2.066;2022-08-16T06:01:09;28.13;;;20.30;;
63930;SDS011;50111;48.114;-2.066;2022-08-16T06:03:35;28.77;;;19.67;;
63930;SDS011;50111;48.114;-2.066;2022-08-16T06:06:01;26.85;;;18.83;;
63930;SDS011;50111;48.114;-2.066;2022-08-16T06:08:28;26.35;;;17.77;;
63930;SDS011;50111;48.114;-2.066;2022-08-16T06:10:54;25.42;;;18.42;;
63930;SDS011;50111;48.114;-2.066;2022-08-16T06:13:20;27.35;;;18.95;;
63930;SDS011;50111;48.114;-2.066;2022-08-16T06:15:46;25.52;;;17.42;;
63930;SDS011;50111;48.114;-2.066;2022-08-16T06:18:15;30.17;;;18.60;;
63930;SDS011;50111;48.114;-2.066;2022-08-16T06:20:42;25.83;;;18.65;;
63930;SDS011;50111;48.114;-2.066;2022-08-16T06:23:08;24.20;;;17.02;;
63930;SDS011;50111;48.114;-2.066;2022-08-16T06:25:34;26.05;;;17.30;;
63930;SDS011;50111;48.114;-2.066;2022-08-16T06:28:02;21.98;;;16.95;;
63930;SDS011;50111;48.114;-2.066;2022-08-16T06:30:28;23.95;;;17.88;;
63930;SDS011;50111;48.114;-2.066;2022-08-16T06:32:56;27.13;;;17.60;;
63930;SDS011;50111;48.114;-2.066;2022-08-16T06:35:23;24.27;;;17.00;;
63930;SDS011;50111;48.114;-2.066;2022-08-16T06:37:49;29.50;;;16.50;;
63930;SDS011;50111;48.114;-2.066;2022-08-16T06:40:15;27.98;;;17.15;;
63930;SDS011;50111;48.114;-2.066;2022-08-16T06:42:41;27.00;;;17.13;;
63930;SDS011;50111;48.114;-2.066;2022-08-16T06:45:08;24.13;;;15.95;;
63930;SDS011;50111;48.114;-2.066;2022-08-16T06:47:34;20.90;;;15.00;;
63930;SDS011;50111;48.114;-2.066;2022-08-16T06:50:00;20.33;;;13.35;;
63930;SDS011;50111;48.114;-2.066;2022-08-16T06:52:26;14.63;;;12.05;;
63930;SDS011;50111;48.114;-2.066;2022-08-16T06:54:55;21.95;;;13.80;;
63930;SDS011;50111;48.114;-2.066;2022-08-16T06:57:21;20.17;;;12.82;;
63930;SDS011;50111;48.114;-2.066;2022-08-16T06:59:47;19.25;;;13.18;;
63930;SDS011;50111;48.114;-2.066;2022-08-16T07:02:13;19.88;;;13.13;;
63930;SDS011;50111;48.114;-2.066;2022-08-16T07:04:39;18.65;;;13.25;;
63930;SDS011;50111;48.114;-2.066;2022-08-16T07:07:06;22.13;;;13.50;;
63930;SDS011;50111;48.114;-2.066;2022-08-16T07:09:32;20.65;;;13.65;;
63930;SDS011;50111;48.114;-2.066;2022-08-16T07:11:58;13.77;;;12.05;;
63930;SDS011;50111;48.114;-2.066;2022-08-16T07:14:24;23.52;;;12.93;;
63930;SDS011;50111;48.114;-2.066;2022-08-16T07:16:50;14.20;;;11.30;;
63930;SDS011;50111;48.114;-2.066;2022-08-16T07:19:17;12.65;;;9.90;;
63930;SDS011;50111;48.114;-2.066;2022-08-16T07:21:43;13.32;;;9.63;;
63930;SDS011;50111;48.114;-2.066;2022-08-16T07:24:09;10.50;;;7.97;;
63930;SDS011;50111;48.114;-2.066;2022-08-16T07:26:36;11.20;;;8.57;;
63930;SDS011;50111;48.114;-2.066;2022-08-16T07:29:02;8.63;;;6.53;;
63930;SDS011;50111;48.114;-2.066;2022-08-16T07:31:28;12.43;;;6.93;;
63930;SDS011;50111;48.114;-2.066;2022-08-16T07:33:54;8.98;;;6.63;;
63930;SDS011;50111;48.114;-2.066;2022-08-16T07:36:20;10.27;;;7.00;;
63930;SDS011;50111;48.114;-2.066;2022-08-16T07:38:46;9.73;;;5.25;;
63930;SDS011;50111;48.114;-2.066;2022-08-16T07:41:12;8.35;;;4.72;;
63930;SDS011;50111;48.114;-2.066;2022-08-16T07:43:38;9.75;;;5.25;;
63930;SDS011;50111;48.114;-2.066;2022-08-16T07:46:04;7.45;;;4.63;;
63930;SDS011;50111;48.114;-2.066;2022-08-16T07:48:31;7.97;;;4.60;;
63930;SDS011;50111;48.114;-2.066;2022-08-16T07:50:57;5.88;;;4.72;;
63930;SDS011;50111;48.114;-2.066;2022-08-16T07:53:23;7.30;;;4.18;;
63930;SDS011;50111;48.114;-2.066;2022-08-16T07:55:49;6.28;;;3.88;;
63930;SDS011;50111;48.114;-2.066;2022-08-16T07:58:15;5.93;;;3.97;;
63930;SDS011;50111;48.114;-2.066;2022-08-16T08:00:42;6.15;;;4.22;;
63930;SDS011;50111;48.114;-2.066;2022-08-16T08:03:08;6.93;;;3.78;;
63930;SDS011;50111;48.114;-2.066;2022-08-16T08:05:34;5.43;;;3.63;;
63930;SDS011;50111;48.114;-2.066;2022-08-16T08:08:00;6.68;;;2.92;;
63930;SDS011;50111;48.114;-2.066;2022-08-16T08:10:27;3.97;;;3.30;;
63930;SDS011;50111;48.114;-2.066;2022-08-16T08:12:53;5.40;;;3.25;;
63930;SDS011;50111;48.114;-2.066;2022-08-16T08:15:21;3.78;;;3.05;;
63930;SDS011;50111;48.114;-2.066;2022-08-16T08:17:48;7.05;;;4.13;;
63930;SDS011;50111;48.114;-2.066;2022-08-16T08:20:15;4.55;;;3.65;;
63930;SDS011;50111;48.114;-2.066;2022-08-16T08:22:42;7.75;;;4.20;;
63930;SDS011;50111;48.114;-2.066;2022-08-16T08:25:11;4.28;;;3.55;;
63930;SDS011;50111;48.114;-2.066;2022-08-16T08:27:37;7.10;;;3.58;;
63930;SDS011;50111;48.114;-2.066;2022-08-16T08:30:03;5.95;;;4.18;;
63930;SDS011;50111;48.114;-2.066;2022-08-16T08:32:29;6.75;;;4.75;;
63930;SDS011;50111;48.114;-2.066;2022-08-16T08:34:55;9.10;;;4.47;;
63930;SDS011;50111;48.114;-2.066;2022-08-16T08:37:23;6.93;;;4.78;;
63930;SDS011;50111;48.114;-2.066;2022-08-16T08:39:50;7.20;;;5.13;;
63930;SDS011;50111;48.114;-2.066;2022-08-16T08:42:16;7.88;;;5.10;;
63930;SDS011;50111;48.114;-2.066;2022-08-16T08:44:42;4.82;;;3.83;;
63930;SDS011;50111;48.114;-2.066;2022-08-16T08:47:08;7.50;;;3.85;;
63930;SDS011;50111;48.114;-2.066;2022-08-16T08:49:35;5.97;;;3.40;;
63930;SDS011;50111;48.114;-2.066;2022-08-16T08:52:02;4.30;;;2.50;;
63930;SDS011;50111;48.114;-2.066;2022-08-16T08:54:28;5.32;;;2.70;;
63930;SDS011;50111;48.114;-2.066;2022-08-16T08:56:55;4.40;;;2.28;;
63930;SDS011;50111;48.114;-2.066;2022-08-16T08:59:22;4.60;;;2.17;;
63930;SDS011;50111;48.114;-2.066;2022-08-16T09:01:49;3.95;;;2.00;;
63930;SDS011;50111;48.114;-2.066;2022-08-16T09:04:15;3.38;;;2.05;;
63930;SDS011;50111;48.114;-2.066;2022-08-16T09:06:43;2.53;;;1.50;;
63930;SDS011;50111;48.114;-2.066;2022-08-16T09:09:09;2.95;;;2.13;;
63930;SDS011;50111;48.114;-2.066;2022-08-16T09:11:35;2.55;;;1.70;;
63930;SDS011;50111;48.114;-2.066;2022-08-16T09:14:01;2.03;;;1.38;;
63930;SDS011;50111;48.114;-2.066;2022-08-16T09:16:27;3.28;;;1.60;;
63930;SDS011;50111;48.114;-2.066;2022-08-16T09:18:54;3.30;;;1.63;;
63930;SDS011;50111;48.114;-2.066;2022-08-16T09:21:20;2.60;;;1.98;;
63930;SDS011;50111;48.114;-2.066;2022-08-16T09:23:46;2.28;;;1.67;;
63930;SDS011;50111;48.114;-2.066;2022-08-16T09:26:13;3.38;;;1.65;;
63930;SDS011;50111;48.114;-2.066;2022-08-16T09:28:42;1.80;;;1.70;;
63930;SDS011;50111;48.114;-2.066;2022-08-16T09:31:09;3.05;;;1.60;;
63930;SDS011;50111;48.114;-2.066;2022-08-16T09:33:35;2.78;;;1.92;;
63930;SDS011;50111;48.114;-2.066;2022-08-16T09:36:01;1.85;;;1.50;;
63930;SDS011;50111;48.114;-2.066;2022-08-16T09:38:28;3.20;;;1.70;;
63930;SDS011;50111;48.114;-2.066;2022-08-16T09:40:55;3.33;;;1.75;;
63930;SDS011;50111;48.114;-2.066;2022-08-16T09:43:22;2.72;;;1.63;;
63930;SDS011;50111;48.114;-2.066;2022-08-16T09:45:49;2.03;;;1.67;;
63930;SDS011;50111;48.114;-2.066;2022-08-16T09:48:15;1.83;;;1.60;;
63930;SDS011;50111;48.114;-2.066;2022-08-16T09:50:42;2.95;;;1.83;;
63930;SDS011;50111;48.114;-2.066;2022-08-16T09:53:15;3.67;;;1.60;;
63930;SDS011;50111;48.114;-2.066;2022-08-16T09:55:47;1.67;;;1.55;;
63930;SDS011;50111;48.114;-2.066;2022-08-16T09:58:13;2.63;;;1.50;;
63930;SDS011;50111;48.114;-2.066;2022-08-16T10:00:39;2.30;;;1.30;;
63930;SDS011;50111;48.114;-2.066;2022-08-16T10:03:06;2.00;;;1.50;;
63930;SDS011;50111;48.114;-2.066;2022-08-16T10:05:32;3.45;;;1.60;;
63930;SDS011;50111;48.114;-2.066;2022-08-16T10:08:01;3.00;;;1.60;;
63930;SDS011;50111;48.114;-2.066;2022-08-16T10:10:28;1.80;;;1.48;;
63930;SDS011;50111;48.114;-2.066;2022-08-16T10:12:54;1.67;;;1.35;;
63930;SDS011;50111;48.114;-2.066;2022-08-16T10:15:45;3.30;;;1.25;;
63930;SDS011;50111;48.114;-2.066;2022-08-16T10:18:12;2.30;;;1.33;;
63930;SDS011;50111;48.114;-2.066;2022-08-16T10:20:40;2.13;;;1.30;;
63930;SDS011;50111;48.114;-2.066;2022-08-16T10:23:06;4.57;;;1.65;;
63930;SDS011;50111;48.114;-2.066;2022-08-16T10:25:34;1.85;;;1.42;;
63930;SDS011;50111;48.114;-2.066;2022-08-16T10:28:01;1.50;;;1.23;;
63930;SDS011;50111;48.114;-2.066;2022-08-16T10:30:27;2.70;;;1.55;;
63930;SDS011;50111;48.114;-2.066;2022-08-16T10:32:53;3.95;;;1.50;;
63930;SDS011;50111;48.114;-2.066;2022-08-16T10:35:19;4.18;;;1.95;;
63930;SDS011;50111;48.114;-2.066;2022-08-16T10:37:45;3.90;;;1.70;;
63930;SDS011;50111;48.114;-2.066;2022-08-16T10:40:11;3.50;;;1.60;;
63930;SDS011;50111;48.114;-2.066;2022-08-16T10:42:37;2.10;;;1.30;;
63930;SDS011;50111;48.114;-2.066;2022-08-16T10:45:03;3.85;;;1.67;;
63930;SDS011;50111;48.114;-2.066;2022-08-16T10:47:29;2.30;;;1.45;;
63930;SDS011;50111;48.114;-2.066;2022-08-16T10:49:55;3.03;;;1.45;;
63930;SDS011;50111;48.114;-2.066;2022-08-16T10:52:23;2.83;;;1.40;;
63930;SDS011;50111;48.114;-2.066;2022-08-16T10:54:49;2.28;;;1.40;;
63930;SDS011;50111;48.114;-2.066;2022-08-16T10:57:15;2.28;;;1.42;;
63930;SDS011;50111;48.114;-2.066;2022-08-16T10:59:41;1.92;;;1.48;;
63930;SDS011;50111;48.114;-2.066;2022-08-16T11:02:08;4.97;;;1.65;;
63930;SDS011;50111;48.114;-2.066;2022-08-16T11:04:35;2.83;;;1.77;;
63930;SDS011;50111;48.114;-2.066;2022-08-16T11:07:02;4.53;;;1.50;;
63930;SDS011;50111;48.114;-2.066;2022-08-16T11:09:29;2.53;;;1.77;;
63930;SDS011;50111;48.114;-2.066;2022-08-16T11:11:55;3.42;;;1.63;;
63930;SDS011;50111;48.114;-2.066;2022-08-16T11:14:21;6.20;;;1.80;;
63930;SDS011;50111;48.114;-2.066;2022-08-16T11:16:48;3.30;;;1.80;;
63930;SDS011;50111;48.114;-2.066;2022-08-16T11:19:14;1.88;;;1.67;;
63930;SDS011;50111;48.114;-2.066;2022-08-16T11:21:41;4.82;;;1.90;;
63930;SDS011;50111;48.114;-2.066;2022-08-16T11:24:07;2.45;;;1.80;;
63930;SDS011;50111;48.114;-2.066;2022-08-16T11:26:33;2.72;;;1.75;;
63930;SDS011;50111;48.114;-2.066;2022-08-16T11:28:59;3.40;;;1.80;;
63930;SDS011;50111;48.114;-2.066;2022-08-16T11:31:25;4.05;;;2.08;;
63930;SDS011;50111;48.114;-2.066;2022-08-16T11:33:51;4.53;;;2.00;;
63930;SDS011;50111;48.114;-2.066;2022-08-16T11:36:17;3.08;;;1.92;;
63930;SDS011;50111;48.114;-2.066;2022-08-16T11:38:44;2.33;;;1.75;;
63930;SDS011;50111;48.114;-2.066;2022-08-16T11:41:10;3.67;;;2.05;;
63930;SDS011;50111;48.114;-2.066;2022-08-16T11:43:37;4.95;;;2.25;;
63930;SDS011;50111;48.114;-2.066;2022-08-16T11:46:05;2.75;;;1.90;;
63930;SDS011;50111;48.114;-2.066;2022-08-16T11:48:32;2.78;;;2.00;;
63930;SDS011;50111;48.114;-2.066;2022-08-16T11:50:59;2.55;;;1.90;;
63930;SDS011;50111;48.114;-2.066;2022-08-16T11:53:26;2.58;;;2.05;;
63930;SDS011;50111;48.114;-2.066;2022-08-16T11:55:52;2.85;;;1.90;;
63930;SDS011;50111;48.114;-2.066;2022-08-16T11:58:18;3.78;;;2.20;;
63930;SDS011;50111;48.114;-2.066;2022-08-16T12:00:44;3.03;;;2.05;;
63930;SDS011;50111;48.114;-2.066;2022-08-16T12:03:11;3.17;;;2.25;;
63930;SDS011;50111;48.114;-2.066;2022-08-16T12:05:38;4.50;;;2.00;;
63930;SDS011;50111;48.114;-2.066;2022-08-16T12:08:05;3.85;;;2.10;;
63930;SDS011;50111;48.114;-2.066;2022-08-16T12:10:32;4.47;;;2.42;;
63930;SDS011;50111;48.114;-2.066;2022-08-16T12:12:58;3.63;;;2.15;;
63930;SDS011;50111;48.114;-2.066;2022-08-16T12:15:24;7.00;;;2.28;;
63930;SDS011;50111;48.114;-2.066;2022-08-16T12:17:51;4.00;;;2.33;;
63930;SDS011;50111;48.114;-2.066;2022-08-16T12:20:19;4.60;;;2.55;;
63930;SDS011;50111;48.114;-2.066;2022-08-16T12:22:48;4.25;;;2.47;;
63930;SDS011;50111;48.114;-2.066;2022-08-16T12:25:16;5.00;;;2.38;;
63930;SDS011;50111;48.114;-2.066;2022-08-16T12:27:43;7.18;;;2.45;;
63930;SDS011;50111;48.114;-2.066;2022-08-16T12:30:10;4.68;;;2.17;;
63930;SDS011;50111;48.114;-2.066;2022-08-16T12:32:37;3.28;;;2.13;;
63930;SDS011;50111;48.114;-2.066;2022-08-16T12:35:03;2.80;;;2.00;;
63930;SDS011;50111;48.114;-2.066;2022-08-16T12:37:31;2.70;;;2.00;;
63930;SDS011;50111;48.114;-2.066;2022-08-16T12:39:57;5.47;;;2.97;;
63930;SDS011;50111;48.114;-2.066;2022-08-16T12:42:23;2.58;;;2.03;;
63930;SDS011;50111;48.114;-2.066;2022-08-16T12:44:50;4.63;;;2.05;;
63930;SDS011;50111;48.114;-2.066;2022-08-16T12:47:16;3.45;;;2.00;;
63930;SDS011;50111;48.114;-2.066;2022-08-16T12:50:01;2.13;;;1.92;;
63930;SDS011;50111;48.114;-2.066;2022-08-16T12:52:28;2.90;;;2.20;;
63930;SDS011;50111;48.114;-2.066;2022-08-16T12:54:55;3.00;;;1.90;;
63930;SDS011;50111;48.114;-2.066;2022-08-16T12:57:22;4.07;;;2.03;;
63930;SDS011;50111;48.114;-2.066;2022-08-16T12:59:49;2.50;;;1.80;;
63930;SDS011;50111;48.114;-2.066;2022-08-16T13:02:15;2.95;;;1.77;;
63930;SDS011;50111;48.114;-2.066;2022-08-16T13:04:41;3.50;;;2.13;;
63930;SDS011;50111;48.114;-2.066;2022-08-16T13:07:07;2.80;;;1.60;;
63930;SDS011;50111;48.114;-2.066;2022-08-16T13:09:33;3.05;;;1.67;;
63930;SDS011;50111;48.114;-2.066;2022-08-16T13:12:08;4.15;;;1.92;;
63930;SDS011;50111;48.114;-2.066;2022-08-16T13:14:44;4.20;;;2.05;;
63930;SDS011;50111;48.114;-2.066;2022-08-16T13:17:12;3.40;;;2.28;;
63930;SDS011;50111;48.114;-2.066;2022-08-16T13:19:39;5.20;;;2.00;;
63930;SDS011;50111;48.114;-2.066;2022-08-16T13:22:05;4.82;;;2.50;;
63930;SDS011;50111;48.114;-2.066;2022-08-16T13:24:31;5.60;;;2.45;;
63930;SDS011;50111;48.114;-2.066;2022-08-16T13:26:57;3.90;;;2.30;;
63930;SDS011;50111;48.114;-2.066;2022-08-16T13:29:23;7.07;;;2.67;;
63930;SDS011;50111;48.114;-2.066;2022-08-16T13:31:50;4.03;;;2.40;;
63930;SDS011;50111;48.114;-2.066;2022-08-16T13:34:16;5.45;;;2.28;;
63930;SDS011;50111;48.114;-2.066;2022-08-16T13:36:42;4.95;;;2.55;;
63930;SDS011;50111;48.114;-2.066;2022-08-16T13:39:08;5.63;;;2.50;;
63930;SDS011;50111;48.114;-2.066;2022-08-16T13:41:35;2.67;;;2.47;;
63930;SDS011;50111;48.114;-2.066;2022-08-16T13:44:01;8.43;;;2.70;;
63930;SDS011;50111;48.114;-2.066;2022-08-16T13:46:28;4.22;;;2.40;;
63930;SDS011;50111;48.114;-2.066;2022-08-16T13:48:56;4.55;;;2.50;;
63930;SDS011;50111;48.114;-2.066;2022-08-16T13:51:22;3.00;;;2.20;;
63930;SDS011;50111;48.114;-2.066;2022-08-16T13:53:50;4.63;;;2.33;;
63930;SDS011;50111;48.114;-2.066;2022-08-16T13:56:16;10.27;;;2.70;;
63930;SDS011;50111;48.114;-2.066;2022-08-16T13:58:43;6.40;;;2.50;;
63930;SDS011;50111;48.114;-2.066;2022-08-16T14:01:09;7.35;;;2.50;;
63930;SDS011;50111;48.114;-2.066;2022-08-16T14:03:36;5.53;;;2.50;;
63930;SDS011;50111;48.114;-2.066;2022-08-16T14:06:03;3.53;;;2.00;;
63930;SDS011;50111;48.114;-2.066;2022-08-16T14:08:29;4.18;;;2.05;;
63930;SDS011;50111;48.114;-2.066;2022-08-16T14:10:55;5.32;;;2.28;;
63930;SDS011;50111;48.114;-2.066;2022-08-16T14:13:21;5.35;;;2.10;;
63930;SDS011;50111;48.114;-2.066;2022-08-16T14:15:48;3.63;;;2.05;;
63930;SDS011;50111;48.114;-2.066;2022-08-16T14:18:14;5.03;;;1.63;;
63930;SDS011;50111;48.114;-2.066;2022-08-16T14:20:40;5.07;;;2.80;;
63930;SDS011;50111;48.114;-2.066;2022-08-16T14:23:06;3.20;;;2.33;;
63930;SDS011;50111;48.114;-2.066;2022-08-16T14:25:32;5.28;;;2.50;;
63930;SDS011;50111;48.114;-2.066;2022-08-16T14:27:58;4.40;;;2.10;;